createdAt,value
2023-10-01T00:00:45.003Z,12.50
2023-10-01T00:03:12.600Z,12.50
2023-10-01T00:05:42.560Z,12.40
2023-10-01T00:08:10.065Z,12.40
2023-10-01T00:10:37.140Z,12.40
2023-10-01T00:13:04.649Z,12.40
2023-10-01T00:15:31.975Z,12.40
2023-10-01T00:17:59.215Z,12.40
2023-10-01T00:20:28.914Z,12.40
2023-10-01T00:23:00.975Z,12.30
2023-10-01T00:25:29.710Z,12.30
2023-10-01T00:27:59.704Z,12.30
2023-10-01T00:30:34.101Z,12.30
2023-10-01T00:33:05.363Z,12.20
2023-10-01T00:35:32.419Z,12.10
2023-10-01T00:38:03.047Z,12.10
2023-10-01T00:40:30.306Z,12.10
2023-10-01T00:42:59.544Z,12.10
2023-10-01T00:45:27.029Z,12.10
2023-10-01T00:47:55.118Z,12.10
2023-10-01T00:50:24.016Z,12.10
2023-10-01T00:52:53.400Z,12.00
2023-10-01T00:55:22.830Z,12.10
2023-10-01T00:57:51.123Z,12.20
2023-10-01T01:00:21.121Z,12.20
2023-10-01T01:02:59.533Z,12.10
2023-10-01T01:05:38.886Z,12.00
2023-10-01T01:08:23.853Z,11.90
2023-10-01T01:10:52.807Z,11.90
2023-10-01T01:13:20.942Z,11.90
2023-10-01T01:15:53.800Z,11.90
2023-10-01T01:18:22.994Z,11.80
2023-10-01T01:20:50.956Z,11.90
2023-10-01T01:23:19.896Z,11.90
2023-10-01T01:25:47.713Z,11.90
2023-10-01T01:28:16.748Z,11.90
2023-10-01T01:30:45.018Z,11.80
2023-10-01T01:33:22.321Z,11.60
2023-10-01T01:35:50.668Z,11.60
2023-10-01T01:38:18.186Z,11.60
2023-10-01T01:40:48.869Z,11.70
2023-10-01T01:43:25.238Z,11.70
2023-10-01T01:45:56.873Z,11.60
2023-10-01T01:48:35.237Z,11.50
2023-10-01T01:51:03.702Z,11.50
2023-10-01T01:53:36.324Z,11.50
2023-10-01T01:56:11.871Z,11.60
2023-10-01T01:58:41.646Z,11.50
2023-10-01T02:01:10.064Z,11.40
2023-10-01T02:03:38.678Z,11.50
2023-10-01T02:06:10.780Z,11.40
2023-10-01T02:08:51.697Z,11.40
2023-10-01T02:11:22.613Z,11.40
2023-10-01T02:13:56.439Z,11.30
2023-10-01T02:16:30.296Z,11.10
2023-10-01T02:19:13.098Z,11.00
2023-10-01T02:22:01.803Z,10.90
2023-10-01T02:24:56.088Z,10.80
2023-10-01T02:27:30.043Z,10.80
2023-10-01T02:30:15.283Z,10.80
2023-10-01T02:33:11.460Z,10.80
2023-10-01T02:35:42.480Z,10.90
2023-10-01T02:38:30.600Z,10.80
2023-10-01T02:40:59.581Z,10.80
2023-10-01T02:43:34.482Z,10.70
2023-10-01T02:46:06.027Z,10.80
2023-10-01T02:48:33.394Z,10.70
2023-10-01T02:51:15.619Z,10.80
2023-10-01T02:54:02.249Z,10.80
2023-10-01T02:56:34.366Z,10.90
2023-10-01T02:59:11.345Z,10.90
2023-10-01T03:01:48.002Z,10.80
2023-10-01T03:04:18.221Z,10.80
2023-10-01T03:06:56.401Z,10.80
2023-10-01T03:09:38.085Z,10.80
2023-10-01T03:12:24.342Z,10.90
2023-10-01T03:15:10.003Z,11.00
2023-10-01T03:17:40.623Z,11.00
2023-10-01T03:20:34.853Z,10.90
2023-10-01T03:23:03.064Z,10.90
2023-10-01T03:25:57.076Z,10.80
2023-10-01T03:28:28.191Z,10.80
2023-10-01T03:31:08.532Z,10.80
2023-10-01T03:33:40.402Z,10.80
2023-10-01T03:36:12.216Z,10.80
2023-10-01T03:38:46.206Z,10.80
2023-10-01T03:41:23.124Z,10.80
2023-10-01T03:43:52.153Z,10.90
2023-10-01T03:46:25.375Z,10.80
2023-10-01T03:49:00.781Z,10.80
2023-10-01T03:51:54.749Z,10.70
2023-10-01T03:54:50.025Z,10.70
2023-10-01T03:57:18.763Z,10.70
2023-10-01T03:59:53.555Z,10.70
2023-10-01T04:02:43.768Z,10.60
2023-10-01T04:05:23.018Z,10.60
2023-10-01T04:07:51.749Z,10.60
2023-10-01T04:10:28.523Z,10.70
2023-10-01T04:13:13.012Z,10.60
2023-10-01T04:15:47.321Z,10.50
2023-10-01T04:18:15.427Z,10.50
2023-10-01T04:20:58.871Z,10.60
2023-10-01T04:23:31.316Z,10.60
2023-10-01T04:26:05.531Z,10.50
2023-10-01T04:28:46.330Z,10.50
2023-10-01T04:31:42.737Z,10.40
2023-10-01T04:34:13.849Z,10.40
2023-10-01T04:36:44.657Z,10.40
2023-10-01T04:39:12.543Z,10.40
2023-10-01T04:41:40.985Z,10.40
2023-10-01T04:44:08.554Z,10.30
2023-10-01T04:46:41.985Z,10.30
2023-10-01T04:49:32.842Z,10.30
2023-10-01T04:52:11.762Z,10.20
2023-10-01T04:54:42.016Z,10.30
2023-10-01T04:57:10.270Z,10.40
2023-10-01T04:59:57.604Z,10.40
2023-10-01T05:02:25.800Z,10.40
2023-10-01T05:05:09.265Z,10.40
2023-10-01T05:07:38.062Z,10.40
2023-10-01T05:10:06.023Z,10.40
2023-10-01T05:12:33.132Z,10.30
2023-10-01T05:15:18.527Z,10.30
2023-10-01T05:17:46.237Z,10.40
2023-10-01T05:20:13.423Z,10.30
2023-10-01T05:22:48.216Z,10.20
2023-10-01T05:25:19.948Z,10.20
2023-10-01T05:27:53.658Z,10.20
2023-10-01T05:30:39.728Z,10.20
2023-10-01T05:33:07.676Z,10.20
2023-10-01T05:35:49.875Z,10.20
2023-10-01T05:38:18.036Z,10.30
2023-10-01T05:40:46.316Z,10.20
2023-10-01T05:43:14.931Z,10.20
2023-10-01T05:45:45.540Z,10.20
2023-10-01T05:48:12.714Z,10.40
2023-10-01T05:50:40.207Z,10.40
2023-10-01T05:53:10.319Z,10.40
2023-10-01T05:55:39.179Z,10.50
2023-10-01T05:58:15.790Z,10.50
2023-10-01T06:00:46.775Z,10.50
2023-10-01T06:03:16.802Z,10.50
2023-10-01T06:05:45.328Z,10.60
2023-10-01T06:08:19.494Z,10.60
2023-10-01T06:11:08.952Z,10.50
2023-10-01T06:13:50.013Z,10.50
2023-10-01T06:16:25.949Z,10.50
2023-10-01T06:18:59.131Z,10.50
2023-10-01T06:21:35.068Z,10.50
2023-10-01T06:24:05.699Z,10.50
2023-10-01T06:26:51.886Z,10.50
2023-10-01T06:29:19.126Z,10.60
2023-10-01T06:31:50.758Z,10.70
2023-10-01T06:34:25.971Z,10.70
2023-10-01T06:37:00.088Z,10.80
2023-10-01T06:39:32.407Z,10.80
2023-10-01T06:42:21.145Z,10.90
2023-10-01T06:44:51.397Z,11.00
2023-10-01T06:47:19.677Z,11.10
2023-10-01T06:50:06.267Z,11.10
2023-10-01T06:52:43.352Z,11.20
2023-10-01T06:55:27.509Z,11.10
2023-10-01T06:57:56.691Z,11.20
2023-10-01T07:00:26.237Z,11.30
2023-10-01T07:02:53.766Z,11.30
2023-10-01T07:05:24.120Z,11.30
2023-10-01T07:07:53.666Z,11.30
2023-10-01T07:10:21.975Z,11.50
2023-10-01T07:13:06.869Z,11.60
2023-10-01T07:15:48.155Z,11.70
2023-10-01T07:18:21.696Z,11.80
2023-10-01T07:20:51.323Z,11.80
2023-10-01T07:23:23.053Z,11.90
2023-10-01T07:25:58.976Z,12.00
2023-10-01T07:28:26.431Z,12.20
2023-10-01T07:30:57.808Z,12.20
2023-10-01T07:33:29.755Z,12.30
2023-10-01T07:36:03.431Z,12.40
2023-10-01T07:38:48.562Z,12.40
2023-10-01T07:41:19.512Z,12.40
2023-10-01T07:43:47.227Z,12.50
2023-10-01T07:46:20.972Z,12.70
2023-10-01T07:48:48.807Z,12.70
2023-10-01T07:51:27.968Z,12.90
2023-10-01T07:53:58.513Z,13.00
2023-10-01T07:56:26.587Z,13.10
2023-10-01T07:59:18.982Z,13.20
2023-10-01T08:01:47.148Z,13.40
2023-10-01T08:04:34.550Z,13.40
2023-10-01T08:07:17.073Z,13.60
2023-10-01T08:09:52.831Z,13.70
2023-10-01T08:12:58.779Z,13.90
2023-10-01T08:15:33.494Z,14.00
2023-10-01T08:18:33.084Z,14.20
2023-10-01T08:21:00.516Z,14.50
2023-10-01T08:23:32.859Z,14.80
2023-10-01T08:26:23.583Z,15.00
2023-10-01T08:29:00.337Z,15.30
2023-10-01T08:31:47.841Z,15.60
2023-10-01T08:34:28.928Z,15.90
2023-10-01T08:36:58.499Z,16.30
2023-10-01T08:39:35.927Z,16.50
2023-10-01T08:42:09.548Z,16.80
2023-10-01T08:45:06.713Z,17.10
2023-10-01T08:47:37.567Z,17.40
2023-10-01T08:50:26.240Z,17.70
2023-10-01T08:52:59.026Z,17.80
2023-10-01T08:55:40.480Z,18.20
2023-10-01T08:58:21.238Z,18.40
2023-10-01T09:00:53.623Z,18.50
2023-10-01T09:03:36.021Z,18.90
2023-10-01T09:06:05.849Z,19.10
2023-10-01T09:08:46.658Z,19.30
2023-10-01T09:11:17.475Z,19.60
2023-10-01T09:14:00.126Z,19.90
2023-10-01T09:16:34.622Z,20.20
2023-10-01T09:19:05.945Z,20.40
2023-10-01T09:21:40.472Z,20.60
2023-10-01T09:24:35.319Z,20.90
2023-10-01T09:27:23.027Z,21.10
2023-10-01T09:29:59.284Z,21.40
2023-10-01T09:32:52.978Z,21.80
2023-10-01T09:35:32.025Z,22.10
2023-10-01T09:38:12.815Z,22.30
2023-10-01T09:40:44.766Z,22.60
2023-10-01T09:43:20.860Z,22.80
2023-10-01T09:45:53.332Z,22.90
2023-10-01T09:48:31.774Z,22.80
2023-10-01T09:51:16.521Z,22.90
2023-10-01T09:54:01.642Z,23.30
2023-10-01T09:56:48.021Z,23.50
2023-10-01T09:59:16.744Z,23.60
2023-10-01T10:01:46.632Z,23.10
2023-10-01T10:04:21.971Z,23.40
2023-10-01T10:07:02.685Z,23.80
2023-10-01T10:09:32.969Z,24.20
2023-10-01T10:12:03.819Z,24.40
2023-10-01T10:14:34.483Z,24.30
2023-10-01T10:17:10.660Z,24.40
2023-10-01T10:20:41.100Z,24.60
2023-10-01T10:23:16.308Z,24.70
2023-10-01T10:25:47.538Z,24.90
2023-10-01T10:28:26.338Z,25.00
2023-10-01T10:31:32.775Z,25.20
2023-10-01T10:34:31.118Z,25.40
2023-10-01T10:37:01.451Z,25.70
2023-10-01T10:39:48.734Z,25.90
2023-10-01T10:42:33.204Z,25.90
2023-10-01T10:45:23.451Z,25.70
2023-10-01T10:48:07.813Z,25.60
2023-10-01T10:53:31.391Z,26.00
2023-10-01T10:56:07.576Z,26.20
2023-10-01T10:58:41.665Z,26.40
2023-10-01T11:01:24.662Z,26.70
2023-10-01T11:03:58.462Z,27.00
2023-10-01T11:06:31.364Z,26.90
2023-10-01T11:08:59.635Z,26.90
2023-10-01T11:14:01.701Z,27.20
2023-10-01T11:16:38.445Z,27.50
2023-10-01T11:19:18.109Z,27.90
2023-10-01T11:22:01.797Z,28.20
2023-10-01T11:24:34.480Z,28.30
2023-10-01T11:27:22.267Z,28.50
2023-10-01T11:30:22.007Z,28.30
2023-10-01T11:33:02.154Z,28.20
2023-10-01T11:35:37.786Z,28.30
2023-10-01T11:38:19.408Z,28.50
2023-10-01T11:41:06.057Z,28.40
2023-10-01T11:44:00.242Z,28.50
2023-10-01T11:46:34.108Z,28.40
2023-10-01T11:49:08.615Z,28.40
2023-10-01T11:51:55.985Z,28.20
2023-10-01T11:54:44.987Z,28.40
2023-10-01T11:57:25.180Z,28.10
2023-10-01T11:59:57.182Z,27.80
2023-10-01T12:02:34.828Z,27.70
2023-10-01T12:05:07.874Z,27.90
2023-10-01T12:07:44.794Z,28.20
2023-10-01T12:10:33.211Z,28.50
2023-10-01T12:13:04.113Z,28.80
2023-10-01T12:15:52.784Z,29.00
2023-10-01T12:18:20.354Z,29.00
2023-10-01T12:20:56.701Z,29.30
2023-10-01T12:23:27.736Z,29.40
2023-10-01T12:26:15.016Z,29.60
2023-10-01T12:29:02.123Z,29.50
2023-10-01T12:31:29.402Z,29.70
2023-10-01T12:34:02.287Z,30.00
2023-10-01T12:36:45.663Z,29.90
2023-10-01T12:39:13.160Z,29.90
2023-10-01T12:41:55.011Z,29.90
2023-10-01T12:44:31.655Z,29.90
2023-10-01T12:47:03.934Z,29.60
2023-10-01T12:49:35.464Z,29.70
2023-10-01T12:52:04.401Z,29.50
2023-10-01T12:54:37.994Z,29.70
2023-10-01T12:57:19.596Z,30.00
2023-10-01T12:59:50.730Z,30.30
2023-10-01T13:02:25.014Z,30.40
2023-10-01T13:05:15.463Z,30.40
2023-10-01T13:07:44.848Z,29.80
2023-10-01T13:10:12.397Z,29.50
2023-10-01T13:12:41.596Z,29.20
2023-10-01T13:15:18.577Z,29.00
2023-10-01T13:17:46.425Z,28.90
2023-10-01T13:20:23.559Z,28.70
2023-10-01T13:23:01.153Z,28.90
2023-10-01T13:25:28.983Z,29.00
2023-10-01T13:28:08.539Z,29.00
2023-10-01T13:30:57.020Z,29.00
2023-10-01T13:33:26.876Z,29.10
2023-10-01T13:35:58.686Z,29.50
2023-10-01T13:38:32.291Z,29.20
2023-10-01T13:41:07.575Z,29.30
2023-10-01T13:43:54.565Z,29.20
2023-10-01T13:46:41.679Z,29.10
2023-10-01T13:49:27.556Z,29.40
2023-10-01T13:52:14.064Z,29.80
2023-10-01T13:54:59.841Z,30.00
2023-10-01T13:57:45.980Z,30.00
2023-10-01T14:00:31.916Z,30.00
2023-10-01T14:03:17.870Z,30.20
2023-10-01T14:06:03.686Z,29.90
2023-10-01T14:08:46.438Z,29.70
2023-10-01T14:11:17.545Z,29.70
2023-10-01T14:13:49.199Z,29.30
2023-10-01T14:16:24.117Z,29.60
2023-10-01T14:18:55.875Z,30.20
2023-10-01T14:21:26.816Z,30.10
2023-10-01T14:23:58.923Z,30.20
2023-10-01T14:26:34.877Z,30.30
2023-10-01T14:29:07.366Z,30.50
2023-10-01T14:31:50.600Z,30.80
2023-10-01T14:34:18.954Z,31.00
2023-10-01T14:36:46.796Z,30.60
2023-10-01T14:39:14.769Z,30.60
2023-10-01T14:41:47.286Z,30.90
2023-10-01T14:44:25.885Z,30.80
2023-10-01T14:46:55.602Z,30.40
2023-10-01T14:49:26.000Z,30.10
2023-10-01T14:51:57.913Z,29.80
2023-10-01T14:54:26.870Z,29.70
2023-10-01T14:56:57.403Z,29.30
2023-10-01T14:59:32.070Z,29.20
2023-10-01T15:02:01.335Z,29.10
2023-10-01T15:04:34.937Z,29.20
2023-10-01T15:07:02.658Z,29.20
2023-10-01T15:09:34.453Z,29.40
2023-10-01T15:12:06.747Z,29.30
2023-10-01T15:14:49.919Z,29.20
2023-10-01T15:17:23.731Z,29.20
2023-10-01T15:19:55.745Z,29.10
2023-10-01T15:22:23.951Z,29.00
2023-10-01T15:24:51.547Z,29.20
2023-10-01T15:27:28.181Z,29.30
2023-10-01T15:29:57.746Z,29.50
2023-10-01T15:32:30.893Z,29.50
2023-10-01T15:34:59.702Z,29.60
2023-10-01T15:37:33.899Z,29.60
2023-10-01T15:40:25.088Z,29.50
2023-10-01T15:42:56.227Z,29.30
2023-10-01T15:45:25.845Z,29.20
2023-10-01T15:48:00.625Z,28.80
2023-10-01T15:50:40.855Z,28.50
2023-10-01T15:53:23.861Z,28.40
2023-10-01T15:55:57.284Z,28.20
2023-10-01T15:58:28.282Z,28.00
2023-10-01T16:00:56.590Z,27.90
2023-10-01T16:03:30.629Z,27.90
2023-10-01T16:06:10.358Z,27.90
2023-10-01T16:08:38.188Z,27.90
2023-10-01T16:11:07.720Z,27.70
2023-10-01T16:13:36.461Z,27.70
2023-10-01T16:16:06.031Z,27.50
2023-10-01T16:18:38.073Z,27.30
2023-10-01T16:21:07.449Z,27.10
2023-10-01T16:23:39.681Z,27.00
2023-10-01T16:26:09.458Z,26.80
2023-10-01T16:28:36.755Z,26.60
2023-10-01T16:31:06.283Z,26.50
2023-10-01T16:33:44.273Z,26.40
2023-10-01T16:36:21.593Z,26.40
2023-10-01T16:38:54.986Z,26.20
2023-10-01T16:41:24.921Z,26.10
2023-10-01T16:43:55.695Z,26.00
2023-10-01T16:46:25.137Z,25.80
2023-10-01T16:49:00.049Z,25.70
2023-10-01T16:51:39.997Z,25.50
2023-10-01T16:54:16.011Z,25.40
2023-10-01T16:56:50.027Z,25.20
2023-10-01T16:59:23.574Z,25.10
2023-10-01T17:01:59.931Z,24.90
2023-10-01T17:04:33.370Z,24.70
2023-10-01T17:07:02.651Z,24.60
2023-10-01T17:09:35.672Z,24.50
2023-10-01T17:12:05.587Z,24.30
2023-10-01T17:14:33.668Z,24.10
2023-10-01T17:17:08.098Z,24.00
2023-10-01T17:19:35.618Z,23.80
2023-10-01T17:22:09.658Z,23.70
2023-10-01T17:24:44.545Z,23.50
2023-10-01T17:27:17.635Z,23.40
2023-10-01T17:29:45.285Z,23.20
2023-10-01T17:32:18.255Z,23.10
2023-10-01T17:34:48.135Z,23.00
2023-10-01T17:37:23.029Z,22.80
2023-10-01T17:39:56.075Z,22.60
2023-10-01T17:42:23.749Z,22.40
2023-10-01T17:44:52.655Z,22.30
2023-10-01T17:47:23.647Z,22.20
2023-10-01T17:49:58.301Z,22.20
2023-10-01T17:52:31.228Z,22.20
2023-10-01T17:55:01.461Z,22.20
2023-10-01T17:57:37.016Z,22.00
2023-10-01T18:00:13.275Z,21.80
2023-10-01T18:02:42.090Z,21.70
2023-10-01T18:05:20.087Z,21.60
2023-10-01T18:08:04.766Z,21.40
2023-10-01T18:10:41.537Z,21.30
2023-10-01T18:13:16.856Z,21.10
2023-10-01T18:15:56.383Z,21.00
2023-10-01T18:18:28.089Z,20.90
2023-10-01T18:20:58.061Z,20.80
2023-10-01T18:23:26.881Z,20.70
2023-10-01T18:25:56.442Z,20.70
2023-10-01T18:28:26.276Z,20.70
2023-10-01T18:30:55.554Z,20.50
2023-10-01T18:33:27.177Z,20.50
2023-10-01T18:35:57.916Z,20.30
2023-10-01T18:38:30.461Z,20.20
2023-10-01T18:40:58.646Z,20.10
2023-10-01T18:43:27.044Z,20.00
2023-10-01T18:46:01.794Z,20.00
2023-10-01T18:48:41.618Z,19.80
2023-10-01T18:51:13.273Z,19.70
2023-10-01T18:53:42.364Z,19.60
2023-10-01T18:56:11.285Z,19.80
2023-10-01T18:58:39.499Z,19.60
2023-10-01T19:01:07.451Z,19.50
2023-10-01T19:03:35.405Z,19.40
2023-10-01T19:06:03.642Z,19.30
2023-10-01T19:08:34.044Z,19.20
2023-10-01T19:11:03.106Z,19.10
2023-10-01T19:13:31.944Z,19.00
2023-10-01T19:16:01.283Z,19.00
2023-10-01T19:18:29.075Z,18.80
2023-10-01T19:20:57.246Z,18.80
2023-10-01T19:23:36.039Z,18.70
2023-10-01T19:26:06.913Z,18.60
2023-10-01T19:28:35.730Z,18.50
2023-10-01T19:31:12.562Z,18.50
2023-10-01T19:33:41.346Z,18.50
2023-10-01T19:36:12.251Z,18.50
2023-10-01T19:38:40.766Z,18.40
2023-10-01T19:41:08.633Z,18.20
2023-10-01T19:43:39.323Z,18.10
2023-10-01T19:46:13.896Z,18.00
2023-10-01T19:48:51.288Z,17.90
2023-10-01T19:51:26.069Z,17.80
2023-10-01T19:54:07.711Z,17.80
2023-10-01T19:56:34.835Z,17.80
2023-10-01T19:59:09.727Z,17.80
2023-10-01T20:01:40.664Z,17.70
2023-10-01T20:04:11.082Z,17.60
2023-10-01T20:06:39.639Z,17.50
2023-10-01T20:09:24.662Z,17.40
2023-10-01T20:11:58.412Z,17.40
2023-10-01T20:14:35.193Z,17.40
2023-10-01T20:17:02.908Z,17.30
2023-10-01T20:19:30.929Z,17.30
2023-10-01T20:21:58.898Z,17.20
2023-10-01T20:24:26.361Z,17.20
2023-10-01T20:26:55.997Z,17.20
2023-10-01T20:29:23.939Z,17.10
2023-10-01T20:31:54.437Z,17.00
2023-10-01T20:34:22.124Z,17.00
2023-10-01T20:36:53.859Z,16.90
2023-10-01T20:39:39.764Z,16.90
2023-10-01T20:42:08.941Z,16.80
2023-10-01T20:44:36.366Z,16.70
2023-10-01T20:47:04.428Z,16.60
2023-10-01T20:49:32.956Z,16.60
2023-10-01T20:52:00.796Z,16.50
2023-10-01T20:54:30.539Z,16.50
2023-10-01T20:56:58.156Z,16.50
2023-10-01T20:59:28.266Z,16.40
2023-10-01T21:02:04.383Z,16.40
2023-10-01T21:04:32.922Z,16.40
2023-10-01T21:07:16.908Z,16.30
2023-10-01T21:09:48.760Z,16.20
2023-10-01T21:12:21.666Z,16.10
2023-10-01T21:14:54.698Z,16.10
2023-10-01T21:17:30.242Z,16.00
2023-10-01T21:20:13.378Z,15.90
2023-10-01T21:22:47.184Z,15.90
2023-10-01T21:25:25.849Z,15.90
2023-10-01T21:27:59.040Z,15.80
2023-10-01T21:30:31.808Z,15.80
2023-10-01T21:32:59.184Z,15.70
2023-10-01T21:35:27.651Z,15.70
2023-10-01T21:38:09.036Z,15.70
2023-10-01T21:40:37.860Z,15.70
2023-10-01T21:43:08.468Z,15.60
2023-10-01T21:45:41.254Z,15.60
2023-10-01T21:48:16.695Z,15.50
2023-10-01T21:50:44.583Z,15.50
2023-10-01T21:53:25.786Z,15.40
2023-10-01T21:55:59.621Z,15.50
2023-10-01T21:58:29.409Z,15.40
2023-10-01T22:01:03.028Z,15.30
2023-10-01T22:03:33.324Z,15.30
2023-10-01T22:06:01.266Z,15.20
2023-10-01T22:08:33.602Z,15.00
2023-10-01T22:11:01.486Z,15.00
2023-10-01T22:13:30.273Z,15.00
2023-10-01T22:16:02.774Z,15.10
2023-10-01T22:18:32.681Z,15.00
2023-10-01T22:21:04.895Z,15.00
2023-10-01T22:23:32.046Z,15.00
2023-10-01T22:26:06.646Z,14.90
2023-10-01T22:28:35.381Z,14.90
2023-10-01T22:31:07.723Z,14.90
2023-10-01T22:33:38.837Z,14.80
2023-10-01T22:36:13.329Z,14.70
2023-10-01T22:38:41.447Z,14.50
2023-10-01T22:41:13.539Z,14.50
2023-10-01T22:44:01.502Z,14.50
2023-10-01T22:46:31.388Z,14.50
2023-10-01T22:48:59.345Z,14.50
2023-10-01T22:51:28.836Z,14.40
2023-10-01T22:54:05.916Z,14.40
2023-10-01T22:56:46.855Z,14.40
2023-10-01T22:59:17.789Z,14.30
2023-10-01T23:01:50.481Z,14.30
2023-10-01T23:04:20.490Z,14.30
2023-10-01T23:06:50.669Z,14.20
2023-10-01T23:09:20.926Z,14.20
2023-10-01T23:11:55.422Z,14.20
2023-10-01T23:14:27.043Z,14.20
2023-10-01T23:16:54.578Z,14.10
2023-10-01T23:19:33.488Z,14.10
2023-10-01T23:22:18.449Z,14.00
2023-10-01T23:24:53.097Z,14.10
2023-10-01T23:27:22.091Z,14.00
2023-10-01T23:29:54.096Z,14.00
2023-10-01T23:32:35.478Z,14.00
2023-10-01T23:35:03.731Z,14.00
2023-10-01T23:37:40.208Z,13.90
2023-10-01T23:40:12.320Z,13.80
2023-10-01T23:42:46.408Z,13.90
2023-10-01T23:45:24.621Z,13.90
2023-10-01T23:48:04.238Z,13.80
2023-10-01T23:50:38.909Z,13.80
2023-10-01T23:53:19.787Z,13.70
2023-10-01T23:55:54.794Z,13.50
2023-10-01T23:58:23.320Z,13.40
